»·PEaware :: N21705 KSNA-KSNA

N21705 :: KSNA-KSNA

FLIGHT INFORMATION

Flight Status: Arrived
Operator: Privately registered:
United States
More flights under this callsign
Pilot: Anonymous 33140 (33140)
Aircraft: CESSNA 172 SKYHAWK
(C172)
More flights by this aircraft type
Origin: KSNA John Wayne-Orange Co
United States
Destination: KSNA John Wayne-Orange Co
United States
More flights between these airports :: More routes between these airports
Route: SLI
File this flight plan on PilotEdge
Remarks:
Altitude:
(Current/Filed)
3,000ft
Speed:
(Current/Filed)
110kts
Departed: 13-Jan-21 09:09 AM
Arrived: 13-Jan-21 09:34 AM
Distance/Time
Traveled:
0nm/0:25
Distance/Time
To Go:
Arrived

Flight Plot

Page will automatically refresh every two minutes.


Map Options




Map Legend


Flown Route
Filed Route
Departure Airport
Arrival Airport
Navaid (VOR, NDB)
Fix

Horizontal Profiles

Position Reports

Time Latitude Longitude Heading Altitude Ground
Speed
13-Jan-21 08:43 33.670604 -117.867744 188 53ft 0kts
13-Jan-21 08:44 33.670604 -117.867744 188 53ft 0kts
13-Jan-21 08:46 33.670604 -117.867744 188 53ft 0kts
13-Jan-21 08:46 33.670604 -117.867744 188 53ft 0kts
13-Jan-21 08:47 33.670604 -117.867744 188 53ft 0kts
13-Jan-21 08:48 33.670604 -117.867744 188 53ft 0kts
13-Jan-21 08:49 33.670604 -117.867744 188 53ft 0kts
13-Jan-21 08:50 33.670604 -117.867744 188 53ft 0kts
13-Jan-21 08:51 33.670604 -117.867744 188 53ft 0kts
13-Jan-21 08:52 33.670604 -117.867744 188 53ft 0kts
13-Jan-21 08:53 33.670604 -117.867744 188 53ft 0kts
13-Jan-21 08:54 33.670604 -117.867744 188 53ft 0kts
13-Jan-21 08:55 33.670604 -117.867744 188 53ft 0kts
13-Jan-21 08:56 33.670604 -117.867744 188 53ft 0kts
13-Jan-21 08:57 33.670604 -117.867744 188 53ft 0kts
13-Jan-21 08:58 33.670814 -117.868439 310 54ft 0kts
13-Jan-21 08:59 33.672138 -117.868116 28 55ft 9kts
13-Jan-21 09:00 33.673309 -117.867019 36 57ft 3kts
13-Jan-21 09:01 33.675448 -117.866268 27 55ft 16kts
13-Jan-21 09:02 33.679196 -117.863882 27 47ft 10kts
13-Jan-21 09:03 33.679707 -117.863543 27 45ft 2kts
13-Jan-21 09:04 33.679952 -117.863612 303 45ft 0kts
13-Jan-21 09:05 33.679952 -117.863612 303 45ft 0kts
13-Jan-21 09:06 33.679952 -117.863612 303 45ft 0kts
13-Jan-21 09:07 33.679611 -117.864520 208 47ft 17kts
13-Jan-21 09:08 33.666861 -117.874415 234 638ft 52kts
13-Jan-21 09:09 33.654969 -117.891324 234 1293ft 71kts
13-Jan-21 09:10 33.642640 -117.909326 235 1982ft 81kts
13-Jan-21 09:11 33.624785 -117.936478 234 2085ft 111kts
13-Jan-21 09:12 33.617282 -117.967054 325 2455ft 96kts
13-Jan-21 09:13 33.643378 -117.955441 22 2943ft 107kts
13-Jan-21 09:14 33.671343 -117.937304 26 3065ft 119kts
13-Jan-21 09:15 33.701405 -117.919280 22 3091ft 120kts
13-Jan-21 09:16 33.731602 -117.901504 22 3071ft 121kts
13-Jan-21 09:17 33.761492 -117.883056 23 3056ft 124kts
13-Jan-21 09:18 33.792468 -117.863966 22 3070ft 125kts
13-Jan-21 09:19 33.823788 -117.845839 22 3092ft 123kts
13-Jan-21 09:20 33.855765 -117.827706 23 2990ft 126kts
13-Jan-21 09:21 33.887148 -117.808743 21 2958ft 123kts
13-Jan-21 09:22 33.917948 -117.790315 22 2987ft 126kts
13-Jan-21 09:23 33.947027 -117.768364 74 3004ft 130kts
13-Jan-21 09:24 33.921428 -117.757667 191 3050ft 120kts
13-Jan-21 09:25 33.887527 -117.760670 184 3052ft 121kts
13-Jan-21 09:26 33.853515 -117.761624 185 3081ft 123kts
13-Jan-21 09:27 33.822471 -117.774705 207 2887ft 114kts
13-Jan-21 09:28 33.793405 -117.791900 210 2549ft 113kts
13-Jan-21 09:29 33.765997 -117.810586 216 2040ft 116kts
13-Jan-21 09:30 33.737649 -117.828860 211 1361ft 109kts
13-Jan-21 09:31 33.710638 -117.846326 207 703ft 105kts
13-Jan-21 09:32 33.684962 -117.863004 208 190ft 104kts
13-Jan-21 09:33 33.672253 -117.871675 264 54ft 12kts
13-Jan-21 09:34 33.672551 -117.872191 347 55ft 0kts
13-Jan-21 09:35 33.672568 -117.872196 348 55ft 1kts
13-Jan-21 09:36 33.676925 -117.869537 28 53ft 21kts
13-Jan-21 09:37 33.678446 -117.869706 295 50ft 0kts

Navigation Log

Ident Type
Flight plan parsing failed, navigation log unavailable